Time;durP1;ratioP1;P1;durP2;ratioP2;P2;SDS_P1;SDS_P2;PMS_P1;PMS_P2;Temp;Humidity;BMP_temperature;BMP_pressure;BME280_temperature;BME280_humidity;BME280_pressure;Samples;Min_cycle;Max_cycle;Signal;HPM_P1;HPM_P2
2022/10/20 00:00:17;;;;;;;;;;;;;;;21.17;51.19;96074.84;10494373;28;1910;-49
2022/10/20 00:05:18;;;;;;;;;;;;;;;21.17;50.84;96075.63;10483808;28;1703;-50
2022/10/20 00:10:18;;;;;;;;;;;;;;;21.16;50.90;96074.06;10492647;28;1673;-51
2022/10/20 00:15:19;;;;;;;;;;;;;;;21.16;50.85;96068.00;10493305;28;1082;-52
2022/10/20 00:20:19;;;;;;;;;;;;;;;21.16;51.08;96076.72;10491617;28;1971;-46
2022/10/20 00:25:20;;;;;;;;;;;;;;;21.15;50.84;96076.97;10489306;28;1444;-52
2022/10/20 00:30:20;;;;;;;;;;;;;;;21.14;50.77;96089.38;10493712;28;1095;-51
2022/10/20 00:35:20;;;;;;;;;;;;;;;21.15;51.06;96095.41;10487332;28;1677;-52
2022/10/20 00:40:21;;;;;;;;;;;;;;;21.14;51.05;96086.72;10492739;28;1902;-47
2022/10/20 00:45:21;;;;;;;;;;;;;;;21.14;51.03;96075.41;10484904;28;1571;-51
2022/10/20 00:50:21;;;;;;;;;;;;;;;21.13;51.07;96057.97;10492422;28;1019;-48
2022/10/20 00:55:24;;;;;;;;;;;;;;;21.12;51.06;96044.03;10471418;28;1650;-51
2022/10/20 01:00:24;;;;;;;;;;;;;;;21.13;50.99;96035.06;10493062;28;1917;-50
2022/10/20 01:05:24;;;;;;;;;;;;;;;21.12;51.08;96036.13;10486057;28;1655;-49
2022/10/20 01:10:24;;;;;;;;;;;;;;;21.13;50.82;96031.63;10502496;28;1018;-50
2022/10/20 01:15:25;;;;;;;;;;;;;;;21.11;51.03;96021.34;10478158;28;1731;-49
2022/10/20 01:20:31;;;;;;;;;;;;;;;21.12;50.75;96016.88;10489323;28;1910;-52
2022/10/20 01:25:35;;;;;;;;;;;;;;;21.11;50.79;96023.19;10469003;28;1472;-54
2022/10/20 01:30:36;;;;;;;;;;;;;;;21.11;51.10;96028.47;10491825;28;1240;-49
2022/10/20 01:36:00;;;;;;;;;;;;;;;21.10;51.10;96024.28;10483754;28;1438;-48
2022/10/20 01:41:08;;;;;;;;;;;;;;;21.10;50.75;96022.44;10480946;28;1902;-49
2022/10/20 01:46:08;;;;;;;;;;;;;;;21.08;50.92;96020.03;10490374;28;1114;-50
2022/10/20 01:51:08;;;;;;;;;;;;;;;21.10;50.76;96016.38;10467280;28;1645;-51
2022/10/20 01:56:12;;;;;;;;;;;;;;;21.10;50.81;96008.47;10490444;28;1480;-50
2022/10/20 02:01:42;;;;;;;;;;;;;;;21.08;50.92;96002.66;10474396;28;1901;-54
2022/10/20 02:06:52;;;;;;;;;;;;;;;21.08;51.03;96009.50;10474689;28;1798;-51
2022/10/20 02:11:57;;;;;;;;;;;;;;;21.07;50.69;96001.88;10478239;28;1726;-51
2022/10/20 02:16:58;;;;;;;;;;;;;;;21.08;50.90;95997.41;10483272;28;1171;-51
2022/10/20 02:21:58;;;;;;;;;;;;;;;21.06;50.78;95998.44;10477412;28;1914;-46
2022/10/20 02:27:00;;;;;;;;;;;;;;;21.06;50.97;95989.75;10493187;28;1429;-52
2022/10/20 02:32:00;;;;;;;;;;;;;;;21.06;50.72;95993.16;10493181;28;1677;-51
2022/10/20 02:37:01;;;;;;;;;;;;;;;21.06;50.60;95973.94;10479463;28;1129;-49
2022/10/20 02:42:01;;;;;;;;;;;;;;;21.04;50.65;95965.53;10495807;28;1963;-51
2022/10/20 02:47:01;;;;;;;;;;;;;;;21.06;50.90;95963.41;10497036;28;1142;-51
2022/10/20 02:52:01;;;;;;;;;;;;;;;21.04;50.64;95962.91;10495370;28;1606;-50
2022/10/20 02:57:02;;;;;;;;;;;;;;;21.03;50.96;95962.09;10495814;28;1614;-53
2022/10/20 03:02:02;;;;;;;;;;;;;;;21.04;50.64;95966.28;10492398;28;1906;-49
2022/10/20 03:07:02;;;;;;;;;;;;;;;21.03;50.94;95961.31;10494538;28;1086;-46
2022/10/20 03:12:02;;;;;;;;;;;;;;;21.03;50.46;95964.72;10491060;28;1618;-47
2022/10/20 03:17:03;;;;;;;;;;;;;;;21.03;50.59;95956.03;10494379;28;1047;-52
2022/10/20 03:22:03;;;;;;;;;;;;;;;21.02;50.85;95963.13;10491248;28;1902;-49
2022/10/20 03:27:03;;;;;;;;;;;;;;;21.02;50.46;95963.13;10490979;28;1562;-48
2022/10/20 03:32:04;;;;;;;;;;;;;;;21.02;50.45;95963.13;10495894;28;1190;-50
2022/10/20 03:37:04;;;;;;;;;;;;;;;21.02;50.83;95968.41;10470805;28;1776;-49
2022/10/20 03:42:04;;;;;;;;;;;;;;;21.01;50.58;95964.19;10473131;28;1906;-50
2022/10/20 03:47:04;;;;;;;;;;;;;;;21.01;50.81;95960.75;10493094;28;1103;-48
2022/10/20 03:52:05;;;;;;;;;;;;;;;21.00;50.83;95957.31;10468774;28;1717;-52
2022/10/20 03:57:05;;;;;;;;;;;;;;;20.99;50.61;95953.13;10493272;28;1412;-51
2022/10/20 04:02:05;;;;;;;;;;;;;;;21.00;50.82;95961.78;10494127;28;1906;-51
2022/10/20 04:07:06;;;;;;;;;;;;;;;20.99;50.80;95947.84;10486514;28;1613;-50
2022/10/20 04:12:06;;;;;;;;;;;;;;;21.00;50.54;95954.69;10474870;28;1622;-50
2022/10/20 04:17:06;;;;;;;;;;;;;;;20.99;50.83;95955.75;10491995;28;1090;-47
2022/10/20 04:22:06;;;;;;;;;;;;;;;20.99;50.72;95955.75;10489181;28;1898;-50
2022/10/20 04:27:07;;;;;;;;;;;;;;;20.99;50.70;95952.34;10486452;28;1456;-50
2022/10/20 04:32:07;;;;;;;;;;;;;;;20.98;50.60;95950.75;10491265;28;1547;-52
2022/10/20 04:37:07;;;;;;;;;;;;;;;20.97;50.55;95939.44;10492626;28;1148;-51
2022/10/20 04:42:07;;;;;;;;;;;;;;;20.96;50.46;95937.84;10487198;28;1969;-49
2022/10/20 04:47:08;;;;;;;;;;;;;;;20.97;50.66;95936.78;10492842;28;1039;-48
2022/10/20 04:52:08;;;;;;;;;;;;;;;20.96;50.77;95929.13;10485115;28;1649;-52
2022/10/20 04:57:09;;;;;;;;;;;;;;;20.97;50.62;95922.81;10492159;28;1622;-49
2022/10/20 05:02:10;;;;;;;;;;;;;;;20.95;50.68;95928.38;10492622;28;1973;-51
2022/10/20 05:07:10;;;;;;;;;;;;;;;20.95;50.55;95923.09;10468516;28;1643;-49
2022/10/20 05:12:11;;;;;;;;;;;;;;;20.93;50.49;95919.97;10484634;28;1687;-49
2022/10/20 05:17:11;;;;;;;;;;;;;;;20.94;50.62;95913.63;10491351;28;1181;-50
2022/10/20 05:22:12;;;;;;;;;;;;;;;20.94;50.62;95912.81;10485104;28;1969;-49
2022/10/20 05:27:12;;;;;;;;;;;;;;;20.94;50.53;95912.81;10487067;28;1383;-50
2022/10/20 05:32:12;;;;;;;;;;;;;;;20.94;50.58;95913.63;10491806;28;1166;-53
2022/10/20 05:37:13;;;;;;;;;;;;;;;20.92;50.41;95910.47;10484718;28;1689;-53
2022/10/20 05:42:13;;;;;;;;;;;;;;;20.93;50.38;95913.88;10497533;28;1901;-50
2022/10/20 05:47:14;;;;;;;;;;;;;;;20.91;50.53;95913.38;10499573;28;1166;-46
2022/10/20 05:52:14;;;;;;;;;;;;;;;20.92;50.48;95917.56;10496257;28;1649;-47
2022/10/20 05:57:14;;;;;;;;;;;;;;;20.90;50.60;95912.56;10498346;28;1440;-52
2022/10/20 06:02:15;;;;;;;;;;;;;;;20.91;50.36;95908.91;10492252;28;1906;-51
2022/10/20 06:07:15;;;;;;;;;;;;;;;20.90;50.54;95904.66;10480778;28;1404;-49
2022/10/20 06:12:15;;;;;;;;;;;;;;;20.90;50.49;95906.50;10492713;28;1610;-53
2022/10/20 06:17:15;;;;;;;;;;;;;;;20.89;50.55;95915.50;10498573;28;1050;-54
2022/10/20 06:22:16;;;;;;;;;;;;;;;20.89;50.60;95915.50;10491049;28;1909;-50
2022/10/20 06:27:16;;;;;;;;;;;;;;;20.90;50.45;95917.06;10479151;28;1745;-48
2022/10/20 06:32:19;;;;;;;;;;;;;;;20.88;50.40;95925.22;10497897;28;1087;-51
2022/10/20 06:37:19;;;;;;;;;;;;;;;20.89;50.60;95921.56;10490152;28;1705;-49
2022/10/20 06:42:19;;;;;;;;;;;;;;;20.89;50.24;95916.28;10495964;28;1910;-49
2022/10/20 06:47:20;;;;;;;;;;;;;;;20.88;50.33;95916.53;10497210;28;864;-48
2022/10/20 06:52:20;;;;;;;;;;;;;;;20.88;50.52;95922.59;10493706;28;1650;-49
2022/10/20 06:57:20;;;;;;;;;;;;;;;20.86;50.33;95908.13;10496417;28;1598;-49
2022/10/20 07:02:21;;;;;;;;;;;;;;;20.88;50.58;95909.44;10496675;28;1972;-47
2022/10/20 07:07:25;;;;;;;;;;;;;;;20.86;50.66;95908.91;10489870;28;1562;-52
2022/10/20 07:12:25;;;;;;;;;;;;;;;20.86;50.43;95900.22;10496232;28;1547;-47
2022/10/20 07:17:26;;;;;;;;;;;;;;;20.86;50.56;95901.00;10496885;28;1145;-50
2022/10/20 07:22:26;;;;;;;;;;;;;;;20.85;50.38;95901.28;10490110;28;2349;-50
2022/10/20 07:27:26;;;;;;;;;;;;;;;20.83;50.41;95906.84;10491704;28;1400;-50
2022/10/20 07:32:27;;;;;;;;;;;;;;;20.84;50.38;95903.13;10490717;28;1657;-50
2022/10/20 07:37:27;;;;;;;;;;;;;;;20.84;50.15;95899.69;10495115;28;1039;-48
2022/10/20 07:42:27;;;;;;;;;;;;;;;20.83;50.47;95898.94;10486775;28;1913;-50
2022/10/20 07:47:27;;;;;;;;;;;;;;;20.85;50.40;95893.38;10494473;28;1708;-49
2022/10/20 07:52:29;;;;;;;;;;;;;;;20.84;50.56;95897.84;10494768;28;1110;-51
2022/10/20 07:57:30;;;;;;;;;;;;;;;20.82;50.44;95894.69;10494478;28;1602;-53
2022/10/20 08:02:30;;;;;;;;;;;;;;;20.82;50.38;95889.44;10486184;28;1910;-52
2022/10/20 08:07:31;;;;;;;;;;;;;;;20.79;50.48;95889.19;10494052;28;1205;-51
2022/10/20 08:12:31;;;;;;;;;;;;;;;20.79;50.54;95889.97;10485021;28;1575;-48
2022/10/20 08:17:31;;;;;;;;;;;;;;;20.80;50.47;95888.91;10493457;28;1129;-48
2022/10/20 08:22:32;;;;;;;;;;;;;;;20.82;50.59;95884.16;10468088;28;1970;-50
2022/10/20 08:27:33;;;;;;;;;;;;;;;20.80;50.20;95886.28;10474439;28;1674;-48
2022/10/20 08:32:33;;;;;;;;;;;;;;;20.79;50.42;95881.28;10493261;28;1111;-50
2022/10/20 08:37:35;;;;;;;;;;;;;;;20.77;50.46;95883.41;10490392;28;1657;-50
2022/10/20 08:42:36;;;;;;;;;;;;;;;20.77;50.69;95883.41;10493704;28;1909;-51
2022/10/20 08:47:36;;;;;;;;;;;;;;;20.79;50.14;95884.69;10469935;28;1684;-46
2022/10/20 08:52:37;;;;;;;;;;;;;;;20.77;50.31;95876.28;10491911;28;1613;-49
2022/10/20 08:57:38;;;;;;;;;;;;;;;20.79;50.22;95863.63;10484749;28;1539;-51
2022/10/20 09:02:38;;;;;;;;;;;;;;;20.74;50.61;95866.28;10474507;28;1899;-46
2022/10/20 09:07:38;;;;;;;;;;;;;;;20.76;50.30;95866.81;10488935;28;1035;-51
2022/10/20 09:12:39;;;;;;;;;;;;;;;20.75;50.41;95872.34;10487705;28;1694;-46
2022/10/20 09:17:40;;;;;;;;;;;;;;;20.74;50.13;95866.28;10493366;28;1153;-50
2022/10/20 09:22:40;;;;;;;;;;;;;;;20.75;50.21;95857.31;10470226;28;1977;-50
2022/10/20 09:27:41;;;;;;;;;;;;;;;20.77;50.42;95855.19;10481840;28;1608;-52
2022/10/20 09:32:42;;;;;;;;;;;;;;;20.75;50.23;95851.28;10473525;28;1503;-49
2022/10/20 09:37:43;;;;;;;;;;;;;;;20.74;50.31;95866.28;10491736;28;1090;-51
2022/10/20 09:42:48;;;;;;;;;;;;;;;20.74;50.50;95874.19;10470901;28;1906;-50
2022/10/20 09:47:50;;;;;;;;;;;;;;;20.74;50.21;95866.28;10477933;28;1169;-49
2022/10/20 09:52:50;;;;;;;;;;;;;;;20.74;50.64;95878.66;10488777;28;1669;-46
2022/10/20 09:57:51;;;;;;;;;;;;;;;20.74;50.24;95863.66;10491048;28;1673;-49
2022/10/20 10:03:06;;;;;;;;;;;;;;;20.73;50.51;95856.81;10470638;28;1914;-51
2022/10/20 10:08:12;;;;;;;;;;;;;;;20.74;50.18;95853.13;10489519;28;1153;-49
2022/10/20 10:13:23;;;;;;;;;;;;;;;20.78;50.26;95848.88;10470956;28;1666;-51
2022/10/20 10:18:23;;;;;;;;;;;;;;;20.83;50.26;95832.28;10432231;28;984;-51
2022/10/20 10:23:24;;;;;;;;;;;;;;;20.84;50.48;95834.63;10449214;28;1918;-49
2022/10/20 10:28:24;;;;;;;;;;;;;;;20.87;49.95;95841.19;10491896;28;1531;-50
2022/10/20 10:33:26;;;;;;;;;;;;;;;20.87;50.31;95844.63;10498013;28;1281;-50
2022/10/20 10:38:27;;;;;;;;;;;;;;;20.87;50.03;95834.09;10491831;28;1677;-47
2022/10/20 10:43:45;;;;;;;;;;;;;;;20.87;50.23;95836.72;10491482;28;1969;-51
2022/10/20 10:48:49;;;;;;;;;;;;;;;20.85;50.09;95825.66;10498274;28;1161;-52
2022/10/20 10:53:59;;;;;;;;;;;;;;;20.84;50.34;95825.91;10493840;28;1618;-48
2022/10/20 10:59:16;;;;;;;;;;;;;;;20.80;50.27;95817.78;10494421;28;1094;-48
2022/10/20 11:04:40;;;;;;;;;;;;;;;20.85;50.35;95803.81;10488423;28;1456;-51
2022/10/20 11:09:43;;;;;;;;;;;;;;;20.86;50.38;95792.97;10473507;28;1888;-49
2022/10/20 11:14:47;;;;;;;;;;;;;;;20.85;50.38;95780.88;10477957;28;1702;-48
2022/10/20 11:19:50;;;;;;;;;;;;;;;20.86;50.37;95774.53;10478750;28;1902;-51
2022/10/20 11:24:50;;;;;;;;;;;;;;;20.90;50.25;95770.28;10488153;28;1507;-52
2022/10/20 11:29:57;;;;;;;;;;;;;;;20.88;50.04;95775.06;10478301;28;1880;-49
2022/10/20 11:35:33;;;;;;;;;;;;;;;20.85;50.32;95772.19;10494197;28;1523;-48
2022/10/20 11:40:40;;;;;;;;;;;;;;;20.89;50.23;95765.31;10442945;28;1957;-51
2022/10/20 11:45:54;;;;;;;;;;;;;;;20.86;50.24;95761.38;10471468;28;1665;-48
2022/10/20 11:51:15;;;;;;;;;;;;;;;20.90;50.15;95767.66;10495206;28;1028;-50
2022/10/20 11:56:18;;;;;;;;;;;;;;;20.92;50.01;95757.63;10443123;28;1480;-48
2022/10/20 12:01:41;;;;;;;;;;;;;;;20.92;50.18;95744.44;10468020;28;1910;-50
2022/10/20 12:06:44;;;;;;;;;;;;;;;20.90;50.41;95749.22;10479168;28;1625;-49
2022/10/20 12:11:48;;;;;;;;;;;;;;;20.90;50.39;95741.31;10492534;28;1654;-47
2022/10/20 12:16:54;;;;;;;;;;;;;;;20.94;50.30;95733.63;10494468;28;1141;-47
2022/10/20 12:21:55;;;;;;;;;;;;;;;20.92;50.19;95728.63;10489159;28;1941;-51
2022/10/20 12:27:08;;;;;;;;;;;;;;;20.93;50.44;95727.59;10470905;28;1584;-47
2022/10/20 12:32:22;;;;;;;;;;;;;;;20.95;50.33;95724.69;10493567;28;1139;-49
2022/10/20 12:37:23;;;;;;;;;;;;;;;20.91;50.15;95723.66;10492586;28;1097;-50
2022/10/20 12:42:23;;;;;;;;;;;;;;;20.93;50.57;95724.97;10489487;28;1964;-51
2022/10/20 12:47:24;;;;;;;;;;;;;;;20.92;50.37;95723.38;10493157;28;1026;-48
2022/10/20 12:52:31;;;;;;;;;;;;;;;20.95;50.43;95722.84;10487479;28;1693;-46
2022/10/20 12:57:40;;;;;;;;;;;;;;;20.97;50.24;95722.56;10474003;28;1492;-51
2022/10/20 13:02:44;;;;;;;;;;;;;;;21.02;49.97;95712.78;10492771;28;1910;-52
2022/10/20 13:07:44;;;;;;;;;;;;;;;21.32;50.02;95706.44;10486949;28;1614;-49
2022/10/20 13:12:45;;;;;;;;;;;;;;;21.80;49.34;95709.88;10491974;28;1258;-47
2022/10/20 13:17:57;;;;;;;;;;;;;;;21.88;48.60;95713.78;10485329;28;1630;-51
2022/10/20 13:22:57;;;;;;;;;;;;;;;21.71;48.84;95706.28;10491339;28;1914;-50
2022/10/20 13:28:01;;;;;;;;;;;;;;;21.78;48.79;95702.22;10477303;28;1438;-46
2022/10/20 13:33:07;;;;;;;;;;;;;;;21.82;48.49;95715.69;10470424;28;1614;-48
2022/10/20 13:38:33;;;;;;;;;;;;;;;21.74;48.46;95730.25;10482973;28;1172;-52
2022/10/20 13:43:41;;;;;;;;;;;;;;;21.53;48.98;95736.03;10485157;28;1918;-52
2022/10/20 13:48:53;;;;;;;;;;;;;;;21.40;49.03;95739.31;10492108;28;1548;-50
2022/10/20 13:53:58;;;;;;;;;;;;;;;21.30;49.34;95734.16;10488053;28;1617;-52
2022/10/20 13:58:59;;;;;;;;;;;;;;;21.22;49.55;95730.28;10492140;28;1157;-50
2022/10/20 14:03:59;;;;;;;;;;;;;;;21.17;49.67;95742.69;10498822;28;1926;-50
2022/10/20 14:09:22;;;;;;;;;;;;;;;21.13;49.73;95744.31;10499792;28;1074;-48
2022/10/20 14:14:24;;;;;;;;;;;;;;;21.11;49.64;95759.63;10486414;28;1778;-49
2022/10/20 14:19:26;;;;;;;;;;;;;;;21.06;49.95;95763.88;10482216;28;1967;-50
2022/10/20 14:24:31;;;;;;;;;;;;;;;21.04;49.75;95760.72;10492253;28;1989;-49
2022/10/20 14:29:40;;;;;;;;;;;;;;;21.02;50.01;95746.25;10498907;28;1169;-52
2022/10/20 14:34:51;;;;;;;;;;;;;;;21.00;50.18;95754.41;10496041;28;1586;-46
2022/10/20 14:39:51;;;;;;;;;;;;;;;20.99;50.26;95758.13;10497334;28;1906;-51
2022/10/20 14:44:51;;;;;;;;;;;;;;;20.98;50.05;95758.38;10495965;28;1634;-51
2022/10/20 14:49:52;;;;;;;;;;;;;;;20.99;50.30;95737.03;10477214;28;1651;-51
2022/10/20 14:54:52;;;;;;;;;;;;;;;20.96;50.10;95727.03;10497680;28;1594;-50
2022/10/20 14:59:58;;;;;;;;;;;;;;;20.96;50.05;95742.03;10498069;28;1953;-51
2022/10/20 15:05:18;;;;;;;;;;;;;;;20.96;50.04;95744.69;10490301;28;1618;-49
2022/10/20 15:10:22;;;;;;;;;;;;;;;20.96;50.11;95742.03;10497429;28;1788;-50
2022/10/20 15:15:43;;;;;;;;;;;;;;;20.93;50.28;95750.53;10462160;28;1821;-49
2022/10/20 15:20:46;;;;;;;;;;;;;;;20.88;50.22;95706.53;10490741;28;2011;-51
2022/10/20 15:25:48;;;;;;;;;;;;;;;20.90;50.46;95704.41;10492210;28;1465;-51
2022/10/20 15:30:49;;;;;;;;;;;;;;;20.90;50.07;95693.09;10478820;28;1114;-50
2022/10/20 15:35:49;;;;;;;;;;;;;;;20.89;50.42;95684.41;10470120;28;1570;-47
2022/10/20 15:40:50;;;;;;;;;;;;;;;20.86;50.25;95684.97;10496229;28;1969;-53
2022/10/20 15:45:53;;;;;;;;;;;;;;;20.87;50.38;95689.19;10492392;28;1677;-51
2022/10/20 15:50:54;;;;;;;;;;;;;;;20.87;50.03;95683.91;10495733;28;968;-51
2022/10/20 15:55:54;;;;;;;;;;;;;;;20.88;50.22;95666.22;10469364;28;1680;-49
2022/10/20 16:00:54;;;;;;;;;;;;;;;20.84;50.27;95652.84;10495175;28;1910;-52
2022/10/20 16:05:55;;;;;;;;;;;;;;;20.85;50.41;95651.00;10494817;28;1614;-49
2022/10/20 16:10:55;;;;;;;;;;;;;;;20.83;50.19;95650.47;10495044;28;1042;-50
2022/10/20 16:15:55;;;;;;;;;;;;;;;20.85;50.13;95656.25;10489073;28;1698;-49
2022/10/20 16:20:56;;;;;;;;;;;;;;;20.84;50.51;95650.19;10491460;28;1959;-48
2022/10/20 16:25:56;;;;;;;;;;;;;;;20.86;50.26;95663.88;10486472;28;1424;-48
2022/10/20 16:31:00;;;;;;;;;;;;;;;20.81;50.31;95650.75;10494756;28;1200;-50
2022/10/20 16:36:02;;;;;;;;;;;;;;;20.80;50.19;95643.91;10486520;28;1665;-50
2022/10/20 16:41:03;;;;;;;;;;;;;;;20.79;50.28;95631.03;10471754;28;1961;-50
2022/10/20 16:46:04;;;;;;;;;;;;;;;20.79;50.00;95623.88;10493791;28;1130;-51
2022/10/20 16:51:05;;;;;;;;;;;;;;;20.77;50.16;95630.53;10468663;28;1685;-49
2022/10/20 16:56:06;;;;;;;;;;;;;;;20.78;50.04;95617.06;10492883;28;1692;-48
2022/10/20 17:01:07;;;;;;;;;;;;;;;20.76;50.15;95610.50;10493519;28;1913;-46
2022/10/20 17:06:08;;;;;;;;;;;;;;;20.76;50.20;95606.03;10487200;28;1645;-49
2022/10/20 17:11:09;;;;;;;;;;;;;;;20.77;50.17;95607.56;10491306;28;1665;-49
2022/10/20 17:16:13;;;;;;;;;;;;;;;20.78;50.00;95624.16;10492683;28;1113;-50
2022/10/20 17:21:15;;;;;;;;;;;;;;;20.74;50.13;95623.94;10491816;28;1964;-50
2022/10/20 17:26:17;;;;;;;;;;;;;;;20.76;50.13;95616.56;10487951;28;1562;-50
2022/10/20 17:31:17;;;;;;;;;;;;;;;20.74;49.98;95626.59;10493859;28;1205;-48
2022/10/20 17:36:18;;;;;;;;;;;;;;;20.73;50.22;95638.16;10494325;28;1641;-47
2022/10/20 17:41:19;;;;;;;;;;;;;;;20.73;50.14;95632.13;10501237;28;1973;-49
2022/10/20 17:46:19;;;;;;;;;;;;;;;20.72;50.00;95639.25;10495263;28;1733;-49
2022/10/20 17:51:20;;;;;;;;;;;;;;;20.72;50.37;95626.06;10496902;28;1622;-46
2022/10/20 17:56:27;;;;;;;;;;;;;;;20.74;49.90;95623.16;10499475;28;1510;-50
2022/10/20 18:01:31;;;;;;;;;;;;;;;20.69;50.35;95610.81;10498938;28;1905;-50
2022/10/20 18:06:35;;;;;;;;;;;;;;;20.70;50.46;95598.44;10494592;28;1110;-51
2022/10/20 18:11:35;;;;;;;;;;;;;;;20.71;50.33;95589.47;10500682;28;1728;-54
2022/10/20 18:16:36;;;;;;;;;;;;;;;20.72;50.28;95565.50;10482620;28;1030;-50
2022/10/20 18:21:36;;;;;;;;;;;;;;;20.71;50.26;95556.00;10494831;28;1913;-49
2022/10/20 18:26:37;;;;;;;;;;;;;;;20.72;50.53;95562.06;10494538;28;1455;-49
2022/10/20 18:31:47;;;;;;;;;;;;;;;20.68;50.28;95572.38;10498524;28;864;-51
2022/10/20 18:36:48;;;;;;;;;;;;;;;20.74;50.37;95586.28;10490863;28;1435;-47
2022/10/20 18:41:49;;;;;;;;;;;;;;;20.71;50.29;95576.31;10498472;28;1894;-50
2022/10/20 18:46:50;;;;;;;;;;;;;;;20.69;50.20;95579.19;10476456;28;1671;-50
2022/10/20 18:51:50;;;;;;;;;;;;;;;20.67;50.39;95564.75;10490573;28;1719;-50
2022/10/20 18:56:50;;;;;;;;;;;;;;;20.68;50.40;95561.06;10479100;28;1382;-47
2022/10/20 19:01:51;;;;;;;;;;;;;;;20.67;50.31;95575.31;10497711;28;1909;-49
2022/10/20 19:06:52;;;;;;;;;;;;;;;20.66;50.56;95557.91;10490270;28;1614;-50
2022/10/20 19:11:52;;;;;;;;;;;;;;;20.67;50.44;95575.31;10497096;28;1031;-52
2022/10/20 19:16:54;;;;;;;;;;;;;;;20.65;50.38;95572.16;10477771;28;1703;-49
2022/10/20 19:21:54;;;;;;;;;;;;;;;20.67;50.26;95570.78;10478214;28;2091;-51
2022/10/20 19:26:56;;;;;;;;;;;;;;;20.67;50.46;95570.78;10474212;28;1655;-50
2022/10/20 19:31:57;;;;;;;;;;;;;;;20.64;50.50;95563.47;10494745;28;1709;-50
2022/10/20 19:36:58;;;;;;;;;;;;;;;20.66;50.24;95568.44;10477666;28;1406;-51
2022/10/20 19:41:59;;;;;;;;;;;;;;;20.64;50.41;95554.78;10492555;28;1981;-51
2022/10/20 19:46:59;;;;;;;;;;;;;;;20.64;50.10;95560.84;10495671;28;1034;-52
2022/10/20 19:52:00;;;;;;;;;;;;;;;20.65;50.32;95566.91;10491339;28;1653;-51
2022/10/20 19:57:00;;;;;;;;;;;;;;;20.63;50.43;95575.06;10494046;28;1709;-52
2022/10/20 20:02:00;;;;;;;;;;;;;;;20.64;50.17;95574.00;10494805;28;1926;-51
2022/10/20 20:07:01;;;;;;;;;;;;;;;20.62;50.04;95580.59;10488127;28;1896;-48
2022/10/20 20:12:01;;;;;;;;;;;;;;;20.62;50.32;95589.28;10487777;28;1626;-50
2022/10/20 20:17:02;;;;;;;;;;;;;;;20.60;50.09;95570.34;10461254;28;1897;-50
2022/10/20 20:22:02;;;;;;;;;;;;;;;20.61;50.46;95582.44;10489588;28;1988;-48
2022/10/20 20:27:03;;;;;;;;;;;;;;;20.60;50.27;95585.34;10491067;28;1495;-49
2022/10/20 20:32:03;;;;;;;;;;;;;;;20.60;50.10;95594.06;10490915;28;1700;-50
2022/10/20 20:37:04;;;;;;;;;;;;;;;20.60;50.02;95607.22;10494719;28;1141;-54
2022/10/20 20:42:04;;;;;;;;;;;;;;;20.60;50.02;95619.59;10473174;28;1969;-49
2022/10/20 20:47:05;;;;;;;;;;;;;;;20.59;50.02;95620.66;10493784;28;1086;-51
2022/10/20 20:52:05;;;;;;;;;;;;;;;20.59;50.00;95621.44;10485711;28;1650;-53
2022/10/20 20:57:06;;;;;;;;;;;;;;;20.60;50.12;95632.75;10492926;28;1460;-49
2022/10/20 21:02:08;;;;;;;;;;;;;;;20.59;50.14;95654.88;10495306;28;1909;-48
2022/10/20 21:07:08;;;;;;;;;;;;;;;20.58;50.14;95669.91;10492047;28;1618;-50
2022/10/20 21:12:08;;;;;;;;;;;;;;;20.59;50.25;95668.03;10474808;28;1611;-49
2022/10/20 21:17:09;;;;;;;;;;;;;;;20.59;50.05;95673.31;10478549;28;1087;-48
2022/10/20 21:22:09;;;;;;;;;;;;;;;20.56;50.05;95685.22;10487665;28;1906;-49
2022/10/20 21:27:10;;;;;;;;;;;;;;;20.58;50.03;95682.28;10488860;28;1523;-48
2022/10/20 21:32:11;;;;;;;;;;;;;;;20.57;50.19;95692.03;10473132;28;1685;-48
2022/10/20 21:37:12;;;;;;;;;;;;;;;20.55;50.11;95699.41;10493245;28;1172;-47
2022/10/20 21:42:12;;;;;;;;;;;;;;;20.56;50.13;95722.06;10486846;28;1972;-52
2022/10/20 21:47:12;;;;;;;;;;;;;;;20.55;50.02;95704.69;10490349;28;1287;-50
2022/10/20 21:52:13;;;;;;;;;;;;;;;20.55;50.09;95707.31;10488405;28;1682;-53
2022/10/20 21:57:13;;;;;;;;;;;;;;;20.55;50.11;95707.31;10491804;28;1460;-54
2022/10/20 22:02:14;;;;;;;;;;;;;;;20.54;50.16;95707.59;10473869;28;1910;-52
2022/10/20 22:07:14;;;;;;;;;;;;;;;20.53;49.97;95717.34;10486205;28;1615;-48
2022/10/20 22:12:15;;;;;;;;;;;;;;;20.54;50.05;95713.66;10487243;28;1622;-52
2022/10/20 22:17:15;;;;;;;;;;;;;;;20.57;50.11;95712.31;10491091;28;1074;-54
2022/10/20 22:22:15;;;;;;;;;;;;;;;20.55;50.12;95725.75;10475196;28;1961;-53
2022/10/20 22:27:16;;;;;;;;;;;;;;;20.54;50.10;95728.66;10494974;28;1574;-49
2022/10/20 22:32:16;;;;;;;;;;;;;;;20.52;49.92;95720.25;10499537;28;1142;-53
2022/10/20 22:37:17;;;;;;;;;;;;;;;20.54;50.09;95712.88;10496435;28;1622;-51
2022/10/20 22:42:17;;;;;;;;;;;;;;;20.51;50.10;95700.22;10480676;28;1975;-49
2022/10/20 22:47:17;;;;;;;;;;;;;;;20.53;50.04;95688.38;10493005;28;1629;-52
2022/10/20 22:52:18;;;;;;;;;;;;;;;20.51;50.17;95682.59;10493404;28;1610;-50
2022/10/20 22:57:18;;;;;;;;;;;;;;;20.51;49.93;95687.88;10475417;28;1439;-50
2022/10/20 23:02:19;;;;;;;;;;;;;;;20.50;50.06;95691.56;10497509;28;1902;-52
2022/10/20 23:07:22;;;;;;;;;;;;;;;20.50;50.09;95683.66;10489735;28;1653;-51
2022/10/20 23:12:22;;;;;;;;;;;;;;;20.50;50.25;95694.22;10496344;28;1618;-50
2022/10/20 23:17:23;;;;;;;;;;;;;;;20.50;50.24;95681.03;10479703;28;1185;-50
2022/10/20 23:22:23;;;;;;;;;;;;;;;20.48;50.08;95659.47;10494943;28;1955;-52
2022/10/20 23:27:27;;;;;;;;;;;;;;;20.49;49.94;95639.97;10470192;28;1427;-51
2022/10/20 23:32:27;;;;;;;;;;;;;;;20.47;50.19;95631.53;10495193;28;1440;-51
2022/10/20 23:37:28;;;;;;;;;;;;;;;20.46;49.99;95622.09;10495700;28;1139;-51
2022/10/20 23:42:28;;;;;;;;;;;;;;;20.48;50.19;95624.44;10471680;28;2115;-51
2022/10/20 23:47:28;;;;;;;;;;;;;;;20.47;49.97;95630.75;10477568;28;1558;-54
2022/10/20 23:52:29;;;;;;;;;;;;;;;20.49;49.88;95624.16;10477009;28;1803;-50
2022/10/20 23:57:29;;;;;;;;;;;;;;;20.45;49.97;95609.19;10494204;28;1678;-51
